sensor_id;sensor_type;location;lat;lon;timestamp;P1;durP1;ratioP1;P2;durP2;ratioP2
43702;SDS011;29304;56.146;40.396;2022-09-09T00:00:06;3.55;;;1.85;;
43702;SDS011;29304;56.146;40.396;2022-09-09T00:00:26;3.45;;;1.90;;
43702;SDS011;29304;56.146;40.396;2022-09-09T00:00:44;3.83;;;1.90;;
43702;SDS011;29304;56.146;40.396;2022-09-09T00:01:37;4.78;;;2.30;;
43702;SDS011;29304;56.146;40.396;2022-09-09T00:02:19;3.58;;;2.13;;
43702;SDS011;29304;56.146;40.396;2022-09-09T00:02:32;3.72;;;2.08;;
43702;SDS011;29304;56.146;40.396;2022-09-09T00:02:45;4.22;;;2.15;;
43702;SDS011;29304;56.146;40.396;2022-09-09T00:03:40;2.60;;;2.05;;
43702;SDS011;29304;56.146;40.396;2022-09-09T00:04:40;4.45;;;2.28;;
43702;SDS011;29304;56.146;40.396;2022-09-09T00:05:32;5.22;;;2.20;;
43702;SDS011;29304;56.146;40.396;2022-09-09T00:06:31;3.15;;;1.67;;
43702;SDS011;29304;56.146;40.396;2022-09-09T00:07:52;3.90;;;2.30;;
43702;SDS011;29304;56.146;40.396;2022-09-09T00:08:04;4.03;;;2.20;;
43702;SDS011;29304;56.146;40.396;2022-09-09T00:08:21;4.17;;;2.20;;
43702;SDS011;29304;56.146;40.396;2022-09-09T00:08:49;3.30;;;2.00;;
43702;SDS011;29304;56.146;40.396;2022-09-09T00:09:08;4.00;;;1.85;;
43702;SDS011;29304;56.146;40.396;2022-09-09T00:09:24;3.47;;;1.92;;
43702;SDS011;29304;56.146;40.396;2022-09-09T00:09:48;4.72;;;2.17;;
43702;SDS011;29304;56.146;40.396;2022-09-09T00:10:13;6.10;;;2.40;;
43702;SDS011;29304;56.146;40.396;2022-09-09T00:10:34;4.78;;;2.20;;
43702;SDS011;29304;56.146;40.396;2022-09-09T00:10:54;2.72;;;1.90;;
43702;SDS011;29304;56.146;40.396;2022-09-09T00:11:11;2.75;;;1.80;;
43702;SDS011;29304;56.146;40.396;2022-09-09T00:11:26;3.10;;;1.80;;
43702;SDS011;29304;56.146;40.396;2022-09-09T00:11:54;4.28;;;2.10;;
43702;SDS011;29304;56.146;40.396;2022-09-09T00:12:11;3.40;;;1.85;;
43702;SDS011;29304;56.146;40.396;2022-09-09T00:12:27;3.45;;;1.90;;
43702;SDS011;29304;56.146;40.396;2022-09-09T00:12:57;4.00;;;1.80;;
43702;SDS011;29304;56.146;40.396;2022-09-09T00:13:22;3.15;;;1.70;;
43702;SDS011;29304;56.146;40.396;2022-09-09T00:13:42;3.65;;;1.60;;
43702;SDS011;29304;56.146;40.396;2022-09-09T00:13:59;2.83;;;1.55;;
43702;SDS011;29304;56.146;40.396;2022-09-09T00:14:18;2.95;;;1.70;;
43702;SDS011;29304;56.146;40.396;2022-09-09T00:15:10;3.97;;;1.90;;
43702;SDS011;29304;56.146;40.396;2022-09-09T00:15:29;3.80;;;1.80;;
43702;SDS011;29304;56.146;40.396;2022-09-09T00:16:15;2.60;;;1.80;;
43702;SDS011;29304;56.146;40.396;2022-09-09T00:16:30;2.42;;;1.60;;
43702;SDS011;29304;56.146;40.396;2022-09-09T00:16:47;2.88;;;1.45;;
43702;SDS011;29304;56.146;40.396;2022-09-09T00:17:09;3.83;;;1.63;;
43702;SDS011;29304;56.146;40.396;2022-09-09T00:17:52;5.18;;;1.95;;
43702;SDS011;29304;56.146;40.396;2022-09-09T00:19:33;3.63;;;1.65;;
43702;SDS011;29304;56.146;40.396;2022-09-09T00:20:32;4.45;;;1.58;;
43702;SDS011;29304;56.146;40.396;2022-09-09T00:21:13;2.83;;;1.70;;
43702;SDS011;29304;56.146;40.396;2022-09-09T00:21:30;3.58;;;1.90;;
43702;SDS011;29304;56.146;40.396;2022-09-09T00:22:02;4.30;;;1.95;;
43702;SDS011;29304;56.146;40.396;2022-09-09T00:22:16;2.58;;;1.80;;
43702;SDS011;29304;56.146;40.396;2022-09-09T00:22:29;3.42;;;1.90;;
43702;SDS011;29304;56.146;40.396;2022-09-09T00:22:44;3.40;;;1.88;;
43702;SDS011;29304;56.146;40.396;2022-09-09T00:23:40;3.80;;;1.73;;
43702;SDS011;29304;56.146;40.396;2022-09-09T00:23:54;3.08;;;1.60;;
43702;SDS011;29304;56.146;40.396;2022-09-09T00:24:14;2.90;;;1.65;;
43702;SDS011;29304;56.146;40.396;2022-09-09T00:24:52;2.97;;;1.98;;
43702;SDS011;29304;56.146;40.396;2022-09-09T00:25:11;2.72;;;1.95;;
43702;SDS011;29304;56.146;40.396;2022-09-09T00:25:31;2.70;;;1.90;;
43702;SDS011;29304;56.146;40.396;2022-09-09T00:26:47;2.33;;;1.70;;
43702;SDS011;29304;56.146;40.396;2022-09-09T00:27:01;3.30;;;1.63;;
43702;SDS011;29304;56.146;40.396;2022-09-09T00:27:25;3.40;;;1.70;;
43702;SDS011;29304;56.146;40.396;2022-09-09T00:27:40;3.95;;;1.95;;
43702;SDS011;29304;56.146;40.396;2022-09-09T00:27:54;4.03;;;1.85;;
43702;SDS011;29304;56.146;40.396;2022-09-09T00:28:09;3.67;;;1.60;;
43702;SDS011;29304;56.146;40.396;2022-09-09T00:28:27;3.25;;;1.52;;
43702;SDS011;29304;56.146;40.396;2022-09-09T00:29:24;3.88;;;1.88;;
43702;SDS011;29304;56.146;40.396;2022-09-09T00:29:44;3.60;;;1.80;;
43702;SDS011;29304;56.146;40.396;2022-09-09T00:30:20;3.53;;;1.70;;
43702;SDS011;29304;56.146;40.396;2022-09-09T00:30:33;3.92;;;2.17;;
43702;SDS011;29304;56.146;40.396;2022-09-09T00:30:45;4.13;;;2.10;;
43702;SDS011;29304;56.146;40.396;2022-09-09T00:31:00;4.22;;;1.83;;
43702;SDS011;29304;56.146;40.396;2022-09-09T00:31:21;3.25;;;1.75;;
43702;SDS011;29304;56.146;40.396;2022-09-09T00:31:35;2.72;;;1.65;;
43702;SDS011;29304;56.146;40.396;2022-09-09T00:31:47;2.40;;;1.70;;
43702;SDS011;29304;56.146;40.396;2022-09-09T00:31:59;2.83;;;1.80;;
43702;SDS011;29304;56.146;40.396;2022-09-09T00:32:16;3.75;;;1.90;;
43702;SDS011;29304;56.146;40.396;2022-09-09T00:32:29;4.18;;;1.83;;
43702;SDS011;29304;56.146;40.396;2022-09-09T00:32:40;3.38;;;1.66;;
43702;SDS011;29304;56.146;40.396;2022-09-09T00:33:01;3.10;;;1.60;;
43702;SDS011;29304;56.146;40.396;2022-09-09T00:33:22;2.40;;;1.70;;
43702;SDS011;29304;56.146;40.396;2022-09-09T00:33:34;2.42;;;1.50;;
43702;SDS011;29304;56.146;40.396;2022-09-09T00:33:44;3.50;;;1.63;;
43702;SDS011;29304;56.146;40.396;2022-09-09T00:33:58;4.70;;;1.83;;
43702;SDS011;29304;56.146;40.396;2022-09-09T00:34:22;3.85;;;1.90;;
43702;SDS011;29304;56.146;40.396;2022-09-09T00:34:34;2.92;;;1.90;;
43702;SDS011;29304;56.146;40.396;2022-09-09T00:34:49;3.88;;;2.08;;
43702;SDS011;29304;56.146;40.396;2022-09-09T00:35:13;4.68;;;2.05;;
43702;SDS011;29304;56.146;40.396;2022-09-09T00:35:40;4.20;;;2.00;;
43702;SDS011;29304;56.146;40.396;2022-09-09T00:35:54;3.95;;;2.10;;
43702;SDS011;29304;56.146;40.396;2022-09-09T00:36:14;3.67;;;1.92;;
43702;SDS011;29304;56.146;40.396;2022-09-09T00:36:28;3.42;;;1.67;;
43702;SDS011;29304;56.146;40.396;2022-09-09T00:36:43;2.50;;;1.67;;
43702;SDS011;29304;56.146;40.396;2022-09-09T00:36:55;2.33;;;1.80;;
43702;SDS011;29304;56.146;40.396;2022-09-09T00:37:08;2.88;;;1.70;;
43702;SDS011;29304;56.146;40.396;2022-09-09T00:37:19;3.45;;;1.88;;
43702;SDS011;29304;56.146;40.396;2022-09-09T00:37:31;3.92;;;1.80;;
43702;SDS011;29304;56.146;40.396;2022-09-09T00:37:45;3.58;;;1.77;;
43702;SDS011;29304;56.146;40.396;2022-09-09T00:38:03;2.83;;;1.77;;
43702;SDS011;29304;56.146;40.396;2022-09-09T00:38:39;3.35;;;1.80;;
43702;SDS011;29304;56.146;40.396;2022-09-09T00:39:03;2.90;;;1.63;;
43702;SDS011;29304;56.146;40.396;2022-09-09T00:39:49;3.05;;;1.60;;
43702;SDS011;29304;56.146;40.396;2022-09-09T00:40:04;2.60;;;1.75;;
43702;SDS011;29304;56.146;40.396;2022-09-09T00:40:35;3.72;;;2.10;;
43702;SDS011;29304;56.146;40.396;2022-09-09T00:41:18;2.58;;;1.58;;
43702;SDS011;29304;56.146;40.396;2022-09-09T00:41:51;3.30;;;1.97;;
43702;SDS011;29304;56.146;40.396;2022-09-09T00:42:42;5.28;;;1.90;;
43702;SDS011;29304;56.146;40.396;2022-09-09T00:43:38;3.63;;;1.92;;
43702;SDS011;29304;56.146;40.396;2022-09-09T00:43:57;3.35;;;1.70;;
43702;SDS011;29304;56.146;40.396;2022-09-09T00:45:42;3.35;;;2.00;;
43702;SDS011;29304;56.146;40.396;2022-09-09T00:47:32;3.60;;;1.92;;
43702;SDS011;29304;56.146;40.396;2022-09-09T00:47:50;3.60;;;1.90;;
43702;SDS011;29304;56.146;40.396;2022-09-09T00:48:03;3.42;;;1.70;;
43702;SDS011;29304;56.146;40.396;2022-09-09T00:48:20;3.20;;;1.52;;
43702;SDS011;29304;56.146;40.396;2022-09-09T00:50:59;3.38;;;1.85;;
43702;SDS011;29304;56.146;40.396;2022-09-09T00:51:25;4.93;;;1.92;;
43702;SDS011;29304;56.146;40.396;2022-09-09T00:52:49;3.35;;;1.75;;
43702;SDS011;29304;56.146;40.396;2022-09-09T00:53:51;2.50;;;1.70;;
43702;SDS011;29304;56.146;40.396;2022-09-09T00:54:27;3.47;;;1.50;;
43702;SDS011;29304;56.146;40.396;2022-09-09T00:54:51;3.17;;;1.60;;
43702;SDS011;29304;56.146;40.396;2022-09-09T00:55:28;3.88;;;1.70;;
43702;SDS011;29304;56.146;40.396;2022-09-09T00:55:54;3.00;;;1.48;;
43702;SDS011;29304;56.146;40.396;2022-09-09T00:56:19;3.22;;;1.40;;
43702;SDS011;29304;56.146;40.396;2022-09-09T00:56:37;2.83;;;1.40;;
43702;SDS011;29304;56.146;40.396;2022-09-09T00:57:36;2.70;;;1.58;;
43702;SDS011;29304;56.146;40.396;2022-09-09T00:57:49;2.70;;;1.40;;
43702;SDS011;29304;56.146;40.396;2022-09-09T00:58:02;2.75;;;1.42;;
43702;SDS011;29304;56.146;40.396;2022-09-09T00:58:12;3.23;;;1.67;;
43702;SDS011;29304;56.146;40.396;2022-09-09T00:58:23;3.30;;;1.60;;
43702;SDS011;29304;56.146;40.396;2022-09-09T00:58:33;3.00;;;1.67;;
43702;SDS011;29304;56.146;40.396;2022-09-09T00:58:50;2.80;;;1.70;;
43702;SDS011;29304;56.146;40.396;2022-09-09T00:59:32;4.03;;;1.67;;
43702;SDS011;29304;56.146;40.396;2022-09-09T01:00:30;3.50;;;1.52;;
43702;SDS011;29304;56.146;40.396;2022-09-09T01:01:00;4.10;;;1.60;;
43702;SDS011;29304;56.146;40.396;2022-09-09T01:01:18;2.67;;;1.65;;
43702;SDS011;29304;56.146;40.396;2022-09-09T01:01:28;3.17;;;1.70;;
43702;SDS011;29304;56.146;40.396;2022-09-09T01:01:39;4.73;;;1.80;;
43702;SDS011;29304;56.146;40.396;2022-09-09T01:01:50;4.68;;;1.73;;
43702;SDS011;29304;56.146;40.396;2022-09-09T01:02:03;3.28;;;1.67;;
43702;SDS011;29304;56.146;40.396;2022-09-09T01:02:39;3.03;;;1.85;;
43702;SDS011;29304;56.146;40.396;2022-09-09T01:03:46;2.22;;;1.60;;
43702;SDS011;29304;56.146;40.396;2022-09-09T01:04:04;3.25;;;1.75;;
43702;SDS011;29304;56.146;40.396;2022-09-09T01:04:25;4.03;;;1.50;;
43702;SDS011;29304;56.146;40.396;2022-09-09T01:04:43;3.85;;;1.58;;
43702;SDS011;29304;56.146;40.396;2022-09-09T01:04:54;3.90;;;1.60;;
43702;SDS011;29304;56.146;40.396;2022-09-09T01:05:12;4.20;;;1.60;;
43702;SDS011;29304;56.146;40.396;2022-09-09T01:05:33;2.72;;;1.38;;
43702;SDS011;29304;56.146;40.396;2022-09-09T01:06:40;4.55;;;1.55;;
43702;SDS011;29304;56.146;40.396;2022-09-09T01:06:52;3.83;;;1.57;;
43702;SDS011;29304;56.146;40.396;2022-09-09T01:07:17;3.33;;;1.50;;
43702;SDS011;29304;56.146;40.396;2022-09-09T01:07:28;3.78;;;1.75;;
43702;SDS011;29304;56.146;40.396;2022-09-09T01:07:39;3.90;;;1.73;;
43702;SDS011;29304;56.146;40.396;2022-09-09T01:07:54;3.25;;;1.30;;
43702;SDS011;29304;56.146;40.396;2022-09-09T01:08:11;3.50;;;1.30;;
43702;SDS011;29304;56.146;40.396;2022-09-09T01:09:42;3.33;;;1.60;;
43702;SDS011;29304;56.146;40.396;2022-09-09T01:10:03;3.80;;;1.58;;
43702;SDS011;29304;56.146;40.396;2022-09-09T01:11:03;2.90;;;1.77;;
43702;SDS011;29304;56.146;40.396;2022-09-09T01:11:16;3.30;;;1.60;;
43702;SDS011;29304;56.146;40.396;2022-09-09T01:11:33;4.00;;;1.65;;
43702;SDS011;29304;56.146;40.396;2022-09-09T01:12:16;3.50;;;1.50;;
43702;SDS011;29304;56.146;40.396;2022-09-09T01:12:41;2.72;;;1.60;;
43702;SDS011;29304;56.146;40.396;2022-09-09T01:12:53;2.58;;;1.50;;
43702;SDS011;29304;56.146;40.396;2022-09-09T01:13:11;3.35;;;1.50;;
43702;SDS011;29304;56.146;40.396;2022-09-09T01:13:30;3.75;;;1.70;;
43702;SDS011;29304;56.146;40.396;2022-09-09T01:13:43;4.22;;;1.80;;
43702;SDS011;29304;56.146;40.396;2022-09-09T01:14:09;3.97;;;1.60;;
43702;SDS011;29304;56.146;40.396;2022-09-09T01:14:50;3.88;;;1.60;;
43702;SDS011;29304;56.146;40.396;2022-09-09T01:15:10;3.83;;;1.52;;
43702;SDS011;29304;56.146;40.396;2022-09-09T01:15:22;4.32;;;1.88;;
43702;SDS011;29304;56.146;40.396;2022-09-09T01:15:36;3.47;;;1.80;;
43702;SDS011;29304;56.146;40.396;2022-09-09T01:15:50;3.17;;;1.65;;
43702;SDS011;29304;56.146;40.396;2022-09-09T01:16:04;3.70;;;1.73;;
43702;SDS011;29304;56.146;40.396;2022-09-09T01:16:18;3.80;;;1.73;;
43702;SDS011;29304;56.146;40.396;2022-09-09T01:16:28;3.60;;;1.60;;
43702;SDS011;29304;56.146;40.396;2022-09-09T01:16:39;4.03;;;1.60;;
43702;SDS011;29304;56.146;40.396;2022-09-09T01:16:54;3.45;;;1.50;;
43702;SDS011;29304;56.146;40.396;2022-09-09T01:17:41;4.45;;;2.00;;
43702;SDS011;29304;56.146;40.396;2022-09-09T01:18:04;3.17;;;1.63;;
43702;SDS011;29304;56.146;40.396;2022-09-09T01:18:20;4.28;;;1.58;;
43702;SDS011;29304;56.146;40.396;2022-09-09T01:18:34;4.90;;;1.50;;
43702;SDS011;29304;56.146;40.396;2022-09-09T01:18:48;4.85;;;1.50;;
43702;SDS011;29304;56.146;40.396;2022-09-09T01:19:03;3.47;;;1.50;;
43702;SDS011;29304;56.146;40.396;2022-09-09T01:19:26;3.72;;;1.67;;
43702;SDS011;29304;56.146;40.396;2022-09-09T01:22:00;4.38;;;1.70;;
43702;SDS011;29304;56.146;40.396;2022-09-09T01:25:01;3.07;;;1.60;;
43702;SDS011;29304;56.146;40.396;2022-09-09T01:25:30;5.00;;;1.60;;
43702;SDS011;29304;56.146;40.396;2022-09-09T01:26:24;4.00;;;2.00;;
43702;SDS011;29304;56.146;40.396;2022-09-09T01:26:42;3.20;;;1.83;;
43702;SDS011;29304;56.146;40.396;2022-09-09T01:26:56;4.60;;;1.90;;
43702;SDS011;29304;56.146;40.396;2022-09-09T01:27:11;4.95;;;1.75;;
43702;SDS011;29304;56.146;40.396;2022-09-09T01:27:24;3.78;;;1.65;;
43702;SDS011;29304;56.146;40.396;2022-09-09T01:27:35;5.87;;;1.63;;
43702;SDS011;29304;56.146;40.396;2022-09-09T01:27:48;5.80;;;1.80;;
43702;SDS011;29304;56.146;40.396;2022-09-09T01:28:02;6.40;;;1.70;;
43702;SDS011;29304;56.146;40.396;2022-09-09T01:28:22;5.50;;;1.50;;
43702;SDS011;29304;56.146;40.396;2022-09-09T01:28:36;6.00;;;1.67;;
43702;SDS011;29304;56.146;40.396;2022-09-09T01:28:49;5.15;;;1.70;;
43702;SDS011;29304;56.146;40.396;2022-09-09T01:29:14;3.25;;;1.70;;
43702;SDS011;29304;56.146;40.396;2022-09-09T01:29:27;2.83;;;1.70;;
43702;SDS011;29304;56.146;40.396;2022-09-09T01:29:37;2.70;;;1.67;;
43702;SDS011;29304;56.146;40.396;2022-09-09T01:29:48;3.47;;;1.90;;
43702;SDS011;29304;56.146;40.396;2022-09-09T01:29:58;3.80;;;1.90;;
43702;SDS011;29304;56.146;40.396;2022-09-09T01:30:10;4.55;;;1.95;;
43702;SDS011;29304;56.146;40.396;2022-09-09T01:30:23;3.47;;;1.50;;
43702;SDS011;29304;56.146;40.396;2022-09-09T01:30:37;3.37;;;1.53;;
43702;SDS011;29304;56.146;40.396;2022-09-09T01:30:50;3.28;;;1.70;;
43702;SDS011;29304;56.146;40.396;2022-09-09T01:31:00;5.03;;;1.70;;
43702;SDS011;29304;56.146;40.396;2022-09-09T01:31:15;6.47;;;1.80;;
43702;SDS011;29304;56.146;40.396;2022-09-09T01:31:34;4.30;;;1.63;;
43702;SDS011;29304;56.146;40.396;2022-09-09T01:31:52;2.50;;;1.50;;
43702;SDS011;29304;56.146;40.396;2022-09-09T01:32:37;3.30;;;1.80;;
43702;SDS011;29304;56.146;40.396;2022-09-09T01:32:53;3.53;;;1.70;;
43702;SDS011;29304;56.146;40.396;2022-09-09T01:33:10;4.60;;;1.70;;
43702;SDS011;29304;56.146;40.396;2022-09-09T01:33:24;4.65;;;1.80;;
43702;SDS011;29304;56.146;40.396;2022-09-09T01:33:35;4.30;;;1.80;;
43702;SDS011;29304;56.146;40.396;2022-09-09T01:33:45;4.40;;;1.90;;
43702;SDS011;29304;56.146;40.396;2022-09-09T01:33:56;4.80;;;1.90;;
43702;SDS011;29304;56.146;40.396;2022-09-09T01:34:13;5.63;;;1.90;;
43702;SDS011;29304;56.146;40.396;2022-09-09T01:34:28;4.10;;;1.70;;
43702;SDS011;29304;56.146;40.396;2022-09-09T01:34:43;4.35;;;1.70;;
43702;SDS011;29304;56.146;40.396;2022-09-09T01:34:53;4.68;;;1.83;;
43702;SDS011;29304;56.146;40.396;2022-09-09T01:35:04;4.93;;;2.00;;
43702;SDS011;29304;56.146;40.396;2022-09-09T01:35:29;4.97;;;2.10;;
43702;SDS011;29304;56.146;40.396;2022-09-09T01:36:12;4.75;;;1.80;;
43702;SDS011;29304;56.146;40.396;2022-09-09T01:36:32;3.05;;;1.63;;
43702;SDS011;29304;56.146;40.396;2022-09-09T01:37:07;2.30;;;1.63;;
43702;SDS011;29304;56.146;40.396;2022-09-09T01:37:20;2.42;;;1.75;;
43702;SDS011;29304;56.146;40.396;2022-09-09T01:37:30;2.40;;;1.67;;
43702;SDS011;29304;56.146;40.396;2022-09-09T01:37:41;2.53;;;1.57;;
43702;SDS011;29304;56.146;40.396;2022-09-09T01:37:52;3.10;;;1.70;;
43702;SDS011;29304;56.146;40.396;2022-09-09T01:38:02;3.37;;;1.70;;
43702;SDS011;29304;56.146;40.396;2022-09-09T01:38:13;4.10;;;1.70;;
43702;SDS011;29304;56.146;40.396;2022-09-09T01:38:24;4.07;;;1.55;;
43702;SDS011;29304;56.146;40.396;2022-09-09T01:38:35;3.97;;;1.50;;
43702;SDS011;29304;56.146;40.396;2022-09-09T01:38:46;3.28;;;1.70;;
43702;SDS011;29304;56.146;40.396;2022-09-09T01:38:57;3.83;;;1.90;;
43702;SDS011;29304;56.146;40.396;2022-09-09T01:39:07;4.47;;;2.00;;
43702;SDS011;29304;56.146;40.396;2022-09-09T01:39:18;9.00;;;2.40;;
43702;SDS011;29304;56.146;40.396;2022-09-09T01:39:30;8.68;;;2.22;;
43702;SDS011;29304;56.146;40.396;2022-09-09T01:39:42;3.35;;;1.50;;
43702;SDS011;29304;56.146;40.396;2022-09-09T01:39:54;4.88;;;1.50;;
43702;SDS011;29304;56.146;40.396;2022-09-09T01:40:04;6.50;;;1.60;;
43702;SDS011;29304;56.146;40.396;2022-09-09T01:40:15;6.70;;;1.50;;
43702;SDS011;29304;56.146;40.396;2022-09-09T01:40:26;5.43;;;1.60;;
43702;SDS011;29304;56.146;40.396;2022-09-09T01:40:37;4.82;;;1.75;;
43702;SDS011;29304;56.146;40.396;2022-09-09T01:40:48;5.20;;;1.90;;
43702;SDS011;29304;56.146;40.396;2022-09-09T01:40:59;3.65;;;1.77;;
43702;SDS011;29304;56.146;40.396;2022-09-09T01:41:09;3.40;;;1.80;;
43702;SDS011;29304;56.146;40.396;2022-09-09T01:41:20;2.70;;;1.80;;
43702;SDS011;29304;56.146;40.396;2022-09-09T01:41:30;2.50;;;1.60;;
43702;SDS011;29304;56.146;40.396;2022-09-09T01:41:41;2.63;;;1.67;;
43702;SDS011;29304;56.146;40.396;2022-09-09T01:41:52;2.77;;;1.70;;
43702;SDS011;29304;56.146;40.396;2022-09-09T01:42:04;2.75;;;1.65;;
43702;SDS011;29304;56.146;40.396;2022-09-09T01:42:16;2.67;;;1.50;;
43702;SDS011;29304;56.146;40.396;2022-09-09T01:42:27;3.55;;;1.60;;
43702;SDS011;29304;56.146;40.396;2022-09-09T01:42:37;3.58;;;1.65;;
43702;SDS011;29304;56.146;40.396;2022-09-09T01:42:48;3.53;;;1.67;;
43702;SDS011;29304;56.146;40.396;2022-09-09T01:42:58;2.50;;;1.63;;
43702;SDS011;29304;56.146;40.396;2022-09-09T01:43:09;2.67;;;1.50;;
43702;SDS011;29304;56.146;40.396;2022-09-09T01:43:20;2.53;;;1.50;;
43702;SDS011;29304;56.146;40.396;2022-09-09T01:43:32;3.50;;;1.42;;
43702;SDS011;29304;56.146;40.396;2022-09-09T01:43:43;4.53;;;1.70;;
43702;SDS011;29304;56.146;40.396;2022-09-09T01:43:54;4.60;;;1.70;;
43702;SDS011;29304;56.146;40.396;2022-09-09T01:44:05;3.70;;;1.70;;
43702;SDS011;29304;56.146;40.396;2022-09-09T01:44:17;3.63;;;1.83;;
43702;SDS011;29304;56.146;40.396;2022-09-09T01:44:29;5.10;;;2.03;;
43702;SDS011;29304;56.146;40.396;2022-09-09T01:44:40;4.40;;;1.87;;
43702;SDS011;29304;56.146;40.396;2022-09-09T01:44:50;4.40;;;1.70;;
43702;SDS011;29304;56.146;40.396;2022-09-09T01:45:00;3.67;;;1.60;;
43702;SDS011;29304;56.146;40.396;2022-09-09T01:45:11;3.88;;;1.80;;
43702;SDS011;29304;56.146;40.396;2022-09-09T01:45:22;3.00;;;1.70;;
43702;SDS011;29304;56.146;40.396;2022-09-09T01:45:33;3.50;;;1.80;;
43702;SDS011;29304;56.146;40.396;2022-09-09T01:45:44;4.57;;;1.83;;
43702;SDS011;29304;56.146;40.396;2022-09-09T01:45:59;5.53;;;1.88;;
43702;SDS011;29304;56.146;40.396;2022-09-09T01:46:11;4.55;;;1.80;;
43702;SDS011;29304;56.146;40.396;2022-09-09T01:46:23;3.33;;;1.65;;
43702;SDS011;29304;56.146;40.396;2022-09-09T01:46:34;3.22;;;1.70;;
43702;SDS011;29304;56.146;40.396;2022-09-09T01:46:44;3.88;;;1.80;;
43702;SDS011;29304;56.146;40.396;2022-09-09T01:46:55;3.90;;;1.90;;
43702;SDS011;29304;56.146;40.396;2022-09-09T01:47:05;3.55;;;1.85;;
43702;SDS011;29304;56.146;40.396;2022-09-09T01:47:16;3.33;;;1.77;;
43702;SDS011;29304;56.146;40.396;2022-09-09T01:47:27;4.50;;;2.05;;
43702;SDS011;29304;56.146;40.396;2022-09-09T01:47:37;5.80;;;2.10;;
43702;SDS011;29304;56.146;40.396;2022-09-09T01:47:48;5.78;;;2.00;;
43702;SDS011;29304;56.146;40.396;2022-09-09T01:47:59;4.43;;;1.88;;
43702;SDS011;29304;56.146;40.396;2022-09-09T01:48:10;3.50;;;1.85;;
43702;SDS011;29304;56.146;40.396;2022-09-09T01:48:21;3.13;;;1.80;;
43702;SDS011;29304;56.146;40.396;2022-09-09T01:48:33;4.10;;;1.83;;
43702;SDS011;29304;56.146;40.396;2022-09-09T01:48:44;4.70;;;1.70;;
43702;SDS011;29304;56.146;40.396;2022-09-09T01:48:55;4.82;;;1.60;;
43702;SDS011;29304;56.146;40.396;2022-09-09T01:49:08;3.65;;;1.58;;
43702;SDS011;29304;56.146;40.396;2022-09-09T01:49:19;3.50;;;1.77;;
43702;SDS011;29304;56.146;40.396;2022-09-09T01:49:30;3.35;;;1.83;;
43702;SDS011;29304;56.146;40.396;2022-09-09T01:49:42;3.60;;;1.83;;
43702;SDS011;29304;56.146;40.396;2022-09-09T01:49:52;3.65;;;1.83;;
43702;SDS011;29304;56.146;40.396;2022-09-09T01:50:03;3.07;;;1.80;;
43702;SDS011;29304;56.146;40.396;2022-09-09T01:50:15;2.60;;;1.63;;
43702;SDS011;29304;56.146;40.396;2022-09-09T01:50:26;2.75;;;1.50;;
43702;SDS011;29304;56.146;40.396;2022-09-09T01:50:36;2.97;;;1.70;;
43702;SDS011;29304;56.146;40.396;2022-09-09T01:50:47;3.47;;;1.80;;
43702;SDS011;29304;56.146;40.396;2022-09-09T01:50:57;3.10;;;1.88;;
43702;SDS011;29304;56.146;40.396;2022-09-09T01:51:08;3.10;;;1.73;;
43702;SDS011;29304;56.146;40.396;2022-09-09T01:51:20;2.95;;;1.77;;
43702;SDS011;29304;56.146;40.396;2022-09-09T01:51:31;2.83;;;1.70;;
43702;SDS011;29304;56.146;40.396;2022-09-09T01:51:42;3.03;;;1.80;;
43702;SDS011;29304;56.146;40.396;2022-09-09T01:51:53;4.22;;;1.80;;
43702;SDS011;29304;56.146;40.396;2022-09-09T01:52:06;3.83;;;1.60;;
43702;SDS011;29304;56.146;40.396;2022-09-09T01:52:18;3.02;;;1.50;;
43702;SDS011;29304;56.146;40.396;2022-09-09T01:52:28;2.53;;;1.43;;
43702;SDS011;29304;56.146;40.396;2022-09-09T01:52:41;4.68;;;1.65;;
43702;SDS011;29304;56.146;40.396;2022-09-09T01:52:55;4.90;;;1.60;;
43702;SDS011;29304;56.146;40.396;2022-09-09T01:53:08;3.65;;;1.55;;
43702;SDS011;29304;56.146;40.396;2022-09-09T01:53:18;3.67;;;1.40;;
43702;SDS011;29304;56.146;40.396;2022-09-09T01:53:30;4.03;;;1.40;;
43702;SDS011;29304;56.146;40.396;2022-09-09T01:53:41;3.97;;;1.42;;
43702;SDS011;29304;56.146;40.396;2022-09-09T01:53:53;3.75;;;1.60;;
43702;SDS011;29304;56.146;40.396;2022-09-09T01:54:03;3.80;;;1.70;;
43702;SDS011;29304;56.146;40.396;2022-09-09T01:54:15;3.95;;;1.85;;
43702;SDS011;29304;56.146;40.396;2022-09-09T01:54:26;3.40;;;1.80;;
43702;SDS011;29304;56.146;40.396;2022-09-09T01:54:39;4.47;;;2.00;;
43702;SDS011;29304;56.146;40.396;2022-09-09T01:54:50;3.80;;;1.80;;
43702;SDS011;29304;56.146;40.396;2022-09-09T01:55:00;3.63;;;1.90;;
43702;SDS011;29304;56.146;40.396;2022-09-09T01:55:10;2.43;;;1.63;;
43702;SDS011;29304;56.146;40.396;2022-09-09T01:55:25;2.50;;;1.70;;
43702;SDS011;29304;56.146;40.396;2022-09-09T01:55:41;2.97;;;1.60;;
43702;SDS011;29304;56.146;40.396;2022-09-09T01:56:15;3.56;;;1.78;;
43702;SDS011;29304;56.146;40.396;2022-09-09T01:57:02;2.97;;;1.75;;
43702;SDS011;29304;56.146;40.396;2022-09-09T01:57:24;3.15;;;1.50;;
43702;SDS011;29304;56.146;40.396;2022-09-09T01:58:00;3.28;;;1.50;;
43702;SDS011;29304;56.146;40.396;2022-09-09T01:58:35;3.25;;;1.40;;
43702;SDS011;29304;56.146;40.396;2022-09-09T01:59:17;4.37;;;1.87;;
43702;SDS011;29304;56.146;40.396;2022-09-09T02:00:05;5.13;;;2.03;;
43702;SDS011;29304;56.146;40.396;2022-09-09T02:00:21;4.13;;;2.10;;
43702;SDS011;29304;56.146;40.396;2022-09-09T02:00:32;3.67;;;1.90;;
43702;SDS011;29304;56.146;40.396;2022-09-09T02:01:49;5.28;;;1.70;;
43702;SDS011;29304;56.146;40.396;2022-09-09T02:02:13;4.00;;;1.90;;
43702;SDS011;29304;56.146;40.396;2022-09-09T02:03:06;2.67;;;1.70;;
43702;SDS011;29304;56.146;40.396;2022-09-09T02:03:27;3.88;;;1.60;;
43702;SDS011;29304;56.146;40.396;2022-09-09T02:03:39;3.92;;;1.65;;
43702;SDS011;29304;56.146;40.396;2022-09-09T02:03:55;3.65;;;1.75;;
43702;SDS011;29304;56.146;40.396;2022-09-09T02:04:15;3.30;;;1.60;;
43702;SDS011;29304;56.146;40.396;2022-09-09T02:04:47;3.45;;;1.40;;
43702;SDS011;29304;56.146;40.396;2022-09-09T02:05:26;2.75;;;1.50;;
43702;SDS011;29304;56.146;40.396;2022-09-09T02:05:49;3.22;;;1.60;;
43702;SDS011;29304;56.146;40.396;2022-09-09T02:06:30;3.22;;;1.67;;
43702;SDS011;29304;56.146;40.396;2022-09-09T02:06:38;3.92;;;1.80;;
43702;SDS011;29304;56.146;40.396;2022-09-09T02:06:50;3.70;;;1.65;;
43702;SDS011;29304;56.146;40.396;2022-09-09T02:07:06;3.42;;;1.55;;
43702;SDS011;29304;56.146;40.396;2022-09-09T02:07:48;3.60;;;1.67;;
43702;SDS011;29304;56.146;40.396;2022-09-09T02:08:03;3.88;;;1.45;;
43702;SDS011;29304;56.146;40.396;2022-09-09T02:08:50;3.72;;;1.75;;
43702;SDS011;29304;56.146;40.396;2022-09-09T02:09:05;2.70;;;1.85;;
43702;SDS011;29304;56.146;40.396;2022-09-09T02:09:17;2.42;;;1.83;;
43702;SDS011;29304;56.146;40.396;2022-09-09T02:09:32;2.42;;;1.65;;
43702;SDS011;29304;56.146;40.396;2022-09-09T02:09:45;3.45;;;1.67;;
43702;SDS011;29304;56.146;40.396;2022-09-09T02:10:20;3.90;;;1.75;;
43702;SDS011;29304;56.146;40.396;2022-09-09T02:10:50;3.10;;;1.90;;
43702;SDS011;29304;56.146;40.396;2022-09-09T02:11:19;3.80;;;2.00;;
43702;SDS011;29304;56.146;40.396;2022-09-09T02:11:32;4.05;;;1.83;;
43702;SDS011;29304;56.146;40.396;2022-09-09T02:11:43;4.18;;;1.60;;
43702;SDS011;29304;56.146;40.396;2022-09-09T02:12:02;5.20;;;1.58;;
43702;SDS011;29304;56.146;40.396;2022-09-09T02:12:18;3.80;;;1.60;;
43702;SDS011;29304;56.146;40.396;2022-09-09T02:12:34;2.90;;;1.60;;